createdAt,value
2018-05-13T00:01:39.502Z,6.00
2018-05-13T00:04:12.382Z,8.57
2018-05-13T00:06:44.907Z,6.53
2018-05-13T00:09:18.647Z,6.97
2018-05-13T00:11:51.545Z,6.90
2018-05-13T00:14:25.017Z,5.67
2018-05-13T00:16:57.674Z,5.93
2018-05-13T00:19:31.209Z,6.47
2018-05-13T00:22:04.078Z,6.93
2018-05-13T00:24:37.453Z,6.80
2018-05-13T00:27:10.300Z,6.83
2018-05-13T00:29:43.830Z,8.43
2018-05-13T00:32:17.454Z,7.30
2018-05-13T00:34:50.951Z,7.47
2018-05-13T00:37:23.820Z,6.77
2018-05-13T00:39:56.590Z,7.00
2018-05-13T00:42:29.211Z,7.40
2018-05-13T00:45:01.916Z,9.10
2018-05-13T00:47:34.574Z,11.53
2018-05-13T00:50:07.307Z,8.40
2018-05-13T00:52:39.763Z,7.47
2018-05-13T00:55:12.453Z,7.07
2018-05-13T00:57:45.010Z,8.03
2018-05-13T01:00:18.379Z,10.27
2018-05-13T01:02:51.359Z,9.10
2018-05-13T01:05:23.820Z,9.83
2018-05-13T01:07:56.354Z,8.20
2018-05-13T01:10:29.151Z,8.37
2018-05-13T01:13:01.855Z,8.30
2018-05-13T01:15:34.755Z,8.73
2018-05-13T01:18:07.327Z,7.67
2018-05-13T01:20:39.923Z,10.57
2018-05-13T01:23:14.154Z,8.10
2018-05-13T01:25:47.327Z,10.33
2018-05-13T01:28:26.694Z,9.03
2018-05-13T01:30:59.546Z,8.30
2018-05-13T01:33:32.125Z,8.73
2018-05-13T01:36:05.300Z,13.10
2018-05-13T01:38:38.655Z,10.87
2018-05-13T01:41:11.497Z,10.47
2018-05-13T01:43:44.664Z,8.40
2018-05-13T01:46:18.193Z,8.63
2018-05-13T01:48:51.582Z,9.97
2018-05-13T01:51:25.241Z,10.13
2018-05-13T01:53:58.116Z,9.10
2018-05-13T01:56:31.553Z,10.67
2018-05-13T01:59:04.214Z,10.23
2018-05-13T02:01:36.669Z,11.00
2018-05-13T02:04:09.296Z,9.63
2018-05-13T02:06:41.818Z,12.10
2018-05-13T02:09:15.077Z,10.10
2018-05-13T02:11:48.676Z,10.90
2018-05-13T02:14:21.622Z,11.33
2018-05-13T02:16:56.139Z,9.90
2018-05-13T02:19:29.677Z,9.77
2018-05-13T02:22:03.133Z,9.80
2018-05-13T02:24:36.328Z,9.70
2018-05-13T02:27:16.888Z,10.03
2018-05-13T02:29:49.383Z,7.70
2018-05-13T02:32:22.000Z,7.37
2018-05-13T02:34:54.437Z,9.10
2018-05-13T02:37:27.004Z,10.07
2018-05-13T02:40:00.283Z,9.70
2018-05-13T02:42:33.664Z,9.50
2018-05-13T02:45:06.458Z,9.70
2018-05-13T02:47:39.055Z,8.67
2018-05-13T02:50:12.262Z,7.93
2018-05-13T02:52:45.190Z,9.57
2018-05-13T02:55:18.792Z,10.70
2018-05-13T02:57:52.649Z,8.70
2018-05-13T03:00:25.869Z,9.53
2018-05-13T03:02:58.575Z,11.27
2018-05-13T03:05:31.278Z,9.90
2018-05-13T03:08:04.880Z,8.47
2018-05-13T03:10:37.536Z,9.57
2018-05-13T03:13:10.768Z,9.00
2018-05-13T03:15:44.724Z,9.23
2018-05-13T03:18:17.569Z,9.80
2018-05-13T03:20:50.937Z,9.10
2018-05-13T03:23:23.765Z,9.30
2018-05-13T03:25:56.254Z,10.07
2018-05-13T03:28:29.742Z,9.00
2018-05-13T03:31:02.399Z,9.33
2018-05-13T03:33:36.080Z,14.73
2018-05-13T03:36:09.480Z,10.27
2018-05-13T03:38:43.180Z,9.80
2018-05-13T03:41:15.910Z,10.53
2018-05-13T03:43:48.477Z,11.70
2018-05-13T03:46:21.146Z,11.90
2018-05-13T03:48:53.675Z,9.60
2018-05-13T03:51:26.409Z,8.63
2018-05-13T03:54:00.099Z,10.50
2018-05-13T03:56:33.385Z,11.23
2018-05-13T03:59:06.145Z,10.87
2018-05-13T04:01:38.664Z,11.60
2018-05-13T04:04:11.170Z,11.27
2018-05-13T04:06:45.249Z,9.90
2018-05-13T04:09:36.461Z,9.87
2018-05-13T04:12:28.106Z,13.60
2018-05-13T04:18:01.775Z,10.70
2018-05-13T04:20:35.081Z,9.77
2018-05-13T04:23:08.483Z,9.00
2018-05-13T04:25:41.214Z,11.17
2018-05-13T04:28:13.792Z,8.90
2018-05-13T04:30:46.278Z,10.40
2018-05-13T04:33:18.833Z,9.17
2018-05-13T04:35:51.453Z,9.20
2018-05-13T04:38:24.803Z,7.50
2018-05-13T04:40:57.997Z,10.03
2018-05-13T04:43:31.454Z,10.50
2018-05-13T04:46:04.241Z,10.17
2018-05-13T04:48:37.517Z,8.30
2018-05-13T04:51:10.388Z,14.93
2018-05-13T04:53:43.616Z,7.80
2018-05-13T04:56:17.186Z,9.00
2018-05-13T04:58:50.436Z,9.40
2018-05-13T05:01:23.375Z,10.17
2018-05-13T05:03:56.303Z,7.40
2018-05-13T05:06:29.218Z,6.60
2018-05-13T05:09:03.177Z,9.07
2018-05-13T05:11:36.077Z,7.53
2018-05-13T05:14:09.245Z,7.83
2018-05-13T05:16:42.326Z,7.77
2018-05-13T05:19:15.657Z,7.33
2018-05-13T05:21:48.153Z,9.20
2018-05-13T05:24:20.969Z,6.73
2018-05-13T05:26:54.702Z,6.60
2018-05-13T05:29:28.404Z,6.10
2018-05-13T05:32:01.308Z,6.53
2018-05-13T05:34:33.839Z,7.83
2018-05-13T05:37:07.227Z,4.60
2018-05-13T05:39:40.595Z,7.17
2018-05-13T05:42:12.946Z,5.80
2018-05-13T05:44:46.579Z,5.57
2018-05-13T05:47:19.074Z,5.40
2018-05-13T05:49:52.394Z,4.90
2018-05-13T05:52:25.489Z,5.33
2018-05-13T05:54:59.511Z,6.40
2018-05-13T05:57:32.401Z,5.10
2018-05-13T06:00:04.923Z,7.30
2018-05-13T06:02:39.213Z,5.30
2018-05-13T06:05:12.590Z,5.73
2018-05-13T06:07:45.446Z,5.23
2018-05-13T06:10:18.201Z,6.57
2018-05-13T06:12:50.784Z,5.67
2018-05-13T06:15:23.325Z,10.80
2018-05-13T06:17:56.759Z,6.50
2018-05-13T06:20:30.336Z,5.70
2018-05-13T06:23:03.181Z,6.43
2018-05-13T06:25:35.657Z,5.30
2018-05-13T06:28:08.798Z,7.17
2018-05-13T06:30:42.231Z,6.03
2018-05-13T06:33:14.892Z,6.10
2018-05-13T06:35:47.384Z,6.67
2018-05-13T06:38:19.897Z,4.80
2018-05-13T06:40:52.372Z,6.67
2018-05-13T06:43:25.675Z,9.00
2018-05-13T06:45:58.333Z,6.60
2018-05-13T06:48:31.614Z,5.73
2018-05-13T06:51:05.171Z,7.40
2018-05-13T06:53:37.714Z,6.77
2018-05-13T06:56:10.181Z,4.90
2018-05-13T06:58:42.656Z,6.63
2018-05-13T07:01:15.676Z,6.37
2018-05-13T07:03:48.580Z,4.47
2018-05-13T07:06:21.058Z,6.03
2018-05-13T07:08:54.431Z,6.40
2018-05-13T07:11:26.991Z,6.27
2018-05-13T07:14:00.138Z,6.90
2018-05-13T07:16:32.919Z,10.70
2018-05-13T07:19:05.454Z,6.43
2018-05-13T07:21:37.917Z,10.53
2018-05-13T07:24:10.781Z,6.40
2018-05-13T07:26:46.947Z,5.90
2018-05-13T07:29:19.653Z,6.17
2018-05-13T07:31:52.126Z,8.23
2018-05-13T07:34:25.652Z,8.00
2018-05-13T07:36:58.401Z,5.27
2018-05-13T07:39:31.028Z,6.53
2018-05-13T07:42:04.995Z,6.00
2018-05-13T07:44:37.779Z,5.77
2018-05-13T07:47:12.817Z,5.93
2018-05-13T07:49:45.824Z,6.83
2018-05-13T07:52:19.199Z,7.40
2018-05-13T07:54:51.838Z,11.53
2018-05-13T07:57:24.419Z,6.37
2018-05-13T07:59:56.860Z,9.33
2018-05-13T08:02:30.320Z,12.17
2018-05-13T08:05:02.925Z,6.90
2018-05-13T08:07:37.003Z,6.73
2018-05-13T08:10:09.813Z,7.77
2018-05-13T08:12:43.063Z,9.10
2018-05-13T08:15:16.456Z,8.20
2018-05-13T08:17:50.020Z,7.57
2018-05-13T08:20:23.249Z,8.73
2018-05-13T08:22:55.650Z,7.30
2018-05-13T08:25:28.211Z,6.90
2018-05-13T08:28:00.738Z,7.90
2018-05-13T08:30:33.282Z,7.80
2018-05-13T08:33:05.706Z,10.87
2018-05-13T08:35:38.647Z,6.53
2018-05-13T08:38:12.473Z,7.57
2018-05-13T08:40:45.260Z,8.37
2018-05-13T08:43:18.551Z,6.30
2018-05-13T08:45:51.318Z,11.73
2018-05-13T08:48:24.397Z,6.53
2018-05-13T08:50:57.203Z,8.50
2018-05-13T08:53:30.362Z,8.30
2018-05-13T08:56:03.790Z,7.77
2018-05-13T08:58:36.447Z,8.93
2018-05-13T09:01:09.275Z,7.67
2018-05-13T09:03:41.816Z,6.77
2018-05-13T09:06:14.314Z,8.13
2018-05-13T09:08:46.935Z,10.07
2018-05-13T09:11:20.132Z,7.07
2018-05-13T09:13:52.734Z,9.30
2018-05-13T09:16:25.171Z,9.13
2018-05-13T09:18:57.775Z,4.80
2018-05-13T09:21:31.038Z,8.93
2018-05-13T09:24:03.965Z,6.23
2018-05-13T09:26:36.458Z,8.40
2018-05-13T09:29:08.917Z,7.40
2018-05-13T09:31:41.421Z,8.67
2018-05-13T09:34:14.762Z,9.07
2018-05-13T09:36:47.313Z,8.47
2018-05-13T09:39:19.757Z,6.27
2018-05-13T09:41:53.169Z,8.33
2018-05-13T09:44:26.621Z,7.70
2018-05-13T09:46:59.327Z,9.60
2018-05-13T09:49:31.681Z,9.80
2018-05-13T09:52:04.162Z,8.17
2018-05-13T09:54:36.641Z,9.87
2018-05-13T09:57:09.869Z,8.10
2018-05-13T09:59:42.480Z,8.37
2018-05-13T10:02:15.095Z,10.60
2018-05-13T10:04:47.734Z,6.80
2018-05-13T10:07:21.857Z,8.60
2018-05-13T10:09:54.807Z,6.93
2018-05-13T10:12:28.155Z,6.87
2018-05-13T10:15:01.667Z,8.60
2018-05-13T10:17:35.266Z,5.80
2018-05-13T10:20:07.716Z,9.47
2018-05-13T10:22:40.195Z,6.50
2018-05-13T10:25:16.961Z,8.47
2018-05-13T10:27:50.376Z,6.97
2018-05-13T10:30:23.821Z,5.90
2018-05-13T10:32:57.312Z,4.67
2018-05-13T10:35:30.851Z,5.50
2018-05-13T10:38:04.243Z,5.50
2018-05-13T10:40:36.802Z,6.30
2018-05-13T10:43:09.285Z,10.00
2018-05-13T10:45:41.780Z,6.07
2018-05-13T10:48:15.127Z,8.23
2018-05-13T10:50:47.513Z,5.47
2018-05-13T10:53:20.080Z,5.70
2018-05-13T10:55:53.521Z,5.60
2018-05-13T10:58:26.166Z,6.07
2018-05-13T11:00:58.718Z,8.20
2018-05-13T11:03:31.205Z,6.10
2018-05-13T11:06:04.053Z,4.97
2018-05-13T11:08:36.617Z,6.87
2018-05-13T11:11:09.008Z,7.10
2018-05-13T11:13:41.629Z,6.30
2018-05-13T11:16:15.739Z,8.60
2018-05-13T11:18:49.215Z,4.53
2018-05-13T11:21:22.681Z,6.37
2018-05-13T11:23:55.429Z,5.10
2018-05-13T11:26:28.637Z,7.47
2018-05-13T11:29:01.513Z,7.57
2018-05-13T11:31:34.066Z,10.07
2018-05-13T11:34:06.792Z,9.03
2018-05-13T11:36:39.916Z,4.93
2018-05-13T11:39:13.171Z,5.00
2018-05-13T11:41:47.893Z,7.77
2018-05-13T11:44:20.371Z,6.43
2018-05-13T11:46:52.846Z,6.77
2018-05-13T11:49:25.489Z,4.90
2018-05-13T11:51:58.783Z,5.10
2018-05-13T11:54:31.953Z,4.93
2018-05-13T11:57:05.331Z,8.80
2018-05-13T11:59:38.063Z,6.03
2018-05-13T12:02:10.621Z,8.20
2018-05-13T12:07:25.533Z,5.37
2018-05-13T12:09:58.539Z,5.43
2018-05-13T12:12:31.847Z,5.20
2018-05-13T12:15:04.507Z,7.60
2018-05-13T12:17:37.959Z,6.10
2018-05-13T12:20:10.543Z,6.37
2018-05-13T12:22:43.344Z,12.03
2018-05-13T12:25:15.993Z,7.00
2018-05-13T12:27:50.042Z,16.47
2018-05-13T12:30:23.594Z,11.37
2018-05-13T12:32:57.027Z,9.90
2018-05-13T12:35:30.828Z,8.50
2018-05-13T12:38:05.117Z,9.83
2018-05-13T12:40:37.664Z,7.43
2018-05-13T12:43:10.482Z,8.33
2018-05-13T12:45:43.701Z,9.73
2018-05-13T12:48:17.072Z,8.03
2018-05-13T12:50:50.586Z,7.20
2018-05-13T12:53:23.040Z,6.73
2018-05-13T12:55:55.515Z,6.33
2018-05-13T12:58:28.917Z,5.83
2018-05-13T13:01:01.591Z,6.07
2018-05-13T13:03:34.034Z,5.07
2018-05-13T13:06:06.501Z,6.00
2018-05-13T13:08:39.856Z,7.43
2018-05-13T13:11:12.347Z,6.70
2018-05-13T13:13:44.762Z,4.20
2018-05-13T13:16:17.220Z,4.47
2018-05-13T13:18:49.961Z,4.23
2018-05-13T13:21:24.088Z,4.20
2018-05-13T13:23:57.393Z,3.70
2018-05-13T13:26:30.662Z,3.07
2018-05-13T13:29:03.232Z,3.43
2018-05-13T13:31:36.042Z,3.03
2018-05-13T13:34:08.503Z,5.20
2018-05-13T13:36:41.941Z,3.97
2018-05-13T13:39:16.211Z,3.83
2018-05-13T13:41:48.787Z,4.63
2018-05-13T13:44:22.008Z,5.00
2018-05-13T13:46:55.451Z,4.50
2018-05-13T13:49:28.210Z,3.73
2018-05-13T13:52:00.683Z,4.10
2018-05-13T13:54:33.672Z,8.50
2018-05-13T13:57:07.000Z,5.53
2018-05-13T13:59:40.382Z,3.40
2018-05-13T14:02:12.831Z,3.57
2018-05-13T14:04:45.357Z,3.30
2018-05-13T14:07:18.573Z,5.30
2018-05-13T14:09:51.357Z,4.83
2018-05-13T14:12:23.800Z,3.67
2018-05-13T14:14:56.316Z,3.13
2018-05-13T14:17:28.997Z,2.90
2018-05-13T14:20:02.355Z,3.07
2018-05-13T14:22:35.769Z,3.13
2018-05-13T14:25:08.352Z,2.80
2018-05-13T14:27:40.912Z,4.03
2018-05-13T14:30:14.634Z,4.70
2018-05-13T14:32:48.344Z,2.67
2018-05-13T14:35:21.058Z,3.23
2018-05-13T14:37:55.178Z,3.50
2018-05-13T14:40:27.901Z,4.27
2018-05-13T14:43:00.535Z,3.23
2018-05-13T14:45:33.911Z,3.03
2018-05-13T14:48:06.481Z,2.93
2018-05-13T14:50:38.939Z,4.77
2018-05-13T14:53:11.832Z,2.37
2018-05-13T14:55:44.763Z,3.17
2018-05-13T14:58:17.154Z,2.60
2018-05-13T15:00:50.425Z,2.70
2018-05-13T15:03:23.009Z,3.33
2018-05-13T15:05:55.746Z,3.30
2018-05-13T15:08:29.877Z,2.57
2018-05-13T15:11:02.632Z,2.90
2018-05-13T15:13:36.685Z,3.50
2018-05-13T15:16:09.403Z,8.00
2018-05-13T15:18:41.973Z,14.80
2018-05-13T15:21:15.344Z,5.47
2018-05-13T15:23:47.782Z,7.60
2018-05-13T15:26:20.359Z,4.90
2018-05-13T15:28:53.618Z,6.03
2018-05-13T15:31:26.240Z,5.67
2018-05-13T15:33:59.601Z,7.60
2018-05-13T15:36:33.472Z,6.07
2018-05-13T15:39:06.685Z,10.90
2018-05-13T15:41:39.369Z,4.80
2018-05-13T15:44:11.916Z,6.17
2018-05-13T15:46:44.402Z,4.37
2018-05-13T15:49:17.722Z,7.23
2018-05-13T15:51:51.438Z,7.00
2018-05-13T15:54:23.833Z,5.57
2018-05-13T15:56:57.066Z,5.93
2018-05-13T15:59:30.236Z,6.00
2018-05-13T16:02:03.139Z,7.73
2018-05-13T16:04:35.746Z,7.20
2018-05-13T16:07:09.117Z,5.80
2018-05-13T16:09:41.573Z,6.37
2018-05-13T16:12:15.053Z,11.13
2018-05-13T16:14:47.598Z,7.20
2018-05-13T16:17:20.402Z,5.00
2018-05-13T16:19:52.967Z,6.90
2018-05-13T16:22:25.410Z,9.50
2018-05-13T16:24:57.917Z,9.27
2018-05-13T16:27:30.327Z,8.33
2018-05-13T16:30:02.820Z,10.73
2018-05-13T16:32:35.178Z,8.50
2018-05-13T16:35:07.652Z,17.20
2018-05-13T16:37:40.265Z,10.87
2018-05-13T16:40:12.713Z,9.10
2018-05-13T16:42:45.165Z,12.90
2018-05-13T16:45:18.051Z,9.20
2018-05-13T16:47:51.379Z,9.60
2018-05-13T16:50:23.851Z,10.23
2018-05-13T16:52:57.233Z,14.40
2018-05-13T16:55:30.050Z,11.70
2018-05-13T16:58:03.476Z,12.57
2018-05-13T17:00:36.345Z,9.27
2018-05-13T17:03:08.802Z,12.33
2018-05-13T17:05:41.420Z,11.60
2018-05-13T17:08:13.931Z,14.03
2018-05-13T17:10:46.397Z,11.50
2018-05-13T17:13:18.790Z,12.23
2018-05-13T17:15:52.212Z,7.27
2018-05-13T17:18:24.854Z,7.83
2018-05-13T17:20:57.532Z,6.83
2018-05-13T17:23:30.345Z,7.63
2018-05-13T17:26:02.995Z,9.00
2018-05-13T17:28:36.227Z,10.47
2018-05-13T17:31:10.051Z,9.20
2018-05-13T17:33:42.711Z,10.27
2018-05-13T17:36:16.099Z,7.50
2018-05-13T17:38:48.650Z,5.03
2018-05-13T17:41:22.098Z,5.47
2018-05-13T17:43:55.443Z,9.57
2018-05-13T17:46:27.932Z,7.10
2018-05-13T17:49:01.228Z,7.47
2018-05-13T17:51:34.051Z,6.77
2018-05-13T17:54:07.314Z,7.50
2018-05-13T17:56:40.856Z,7.20
2018-05-13T17:59:13.440Z,5.80
2018-05-13T18:01:46.340Z,3.60
2018-05-13T18:04:19.397Z,3.30
2018-05-13T18:06:52.072Z,3.00
2018-05-13T18:09:24.930Z,2.63
2018-05-13T18:11:57.753Z,2.50
2018-05-13T18:14:31.686Z,3.43
2018-05-13T18:17:05.419Z,2.83
2018-05-13T18:19:38.135Z,4.47
2018-05-13T18:22:12.118Z,4.90
2018-05-13T18:24:45.518Z,4.13
2018-05-13T18:27:18.167Z,6.80
2018-05-13T18:29:51.015Z,9.40
2018-05-13T18:32:24.230Z,5.90
2018-05-13T18:34:57.351Z,10.93
2018-05-13T18:37:31.543Z,5.63
2018-05-13T18:40:05.607Z,7.40
2018-05-13T18:42:40.077Z,5.67
2018-05-13T18:45:14.269Z,6.80
2018-05-13T18:47:48.992Z,11.83
2018-05-13T18:50:23.334Z,4.20
2018-05-13T18:52:57.623Z,5.60
2018-05-13T18:55:33.038Z,3.33
2018-05-13T18:58:08.003Z,5.37
2018-05-13T19:00:42.296Z,4.17
2018-05-13T19:03:17.819Z,6.27
2018-05-13T19:05:52.571Z,6.27
2018-05-13T19:08:27.068Z,3.20
2018-05-13T19:11:01.342Z,3.80
2018-05-13T19:13:36.170Z,9.93
2018-05-13T19:16:11.042Z,7.00
2018-05-13T19:18:45.420Z,4.07
2018-05-13T19:21:19.896Z,5.17
2018-05-13T19:23:54.586Z,6.67
2018-05-13T19:26:29.183Z,10.97
2018-05-13T19:29:04.442Z,5.93
2018-05-13T19:31:39.704Z,8.83
2018-05-13T19:34:14.098Z,14.10
2018-05-13T19:36:49.151Z,10.93
2018-05-13T19:39:24.123Z,10.53
2018-05-13T19:41:58.477Z,12.77
2018-05-13T19:44:40.007Z,14.60
2018-05-13T19:47:14.566Z,15.37
2018-05-13T19:49:49.154Z,19.60
2018-05-13T19:52:23.642Z,19.80
2018-05-13T19:54:58.183Z,23.23
2018-05-13T19:57:33.537Z,18.10
2018-05-13T20:00:08.442Z,19.10
2018-05-13T20:02:42.771Z,17.20
2018-05-13T20:05:17.395Z,24.73
2018-05-13T20:07:52.482Z,20.93
2018-05-13T20:10:27.499Z,16.93
2018-05-13T20:13:01.867Z,15.50
2018-05-13T20:15:36.264Z,20.77
2018-05-13T20:18:11.557Z,18.10
2018-05-13T20:20:46.283Z,18.77
2018-05-13T20:23:25.490Z,23.17
2018-05-13T20:26:00.154Z,16.60
2018-05-13T20:28:35.159Z,15.53
2018-05-13T20:31:08.607Z,16.37
2018-05-13T20:33:42.164Z,20.83
2018-05-13T20:36:16.319Z,14.60
2018-05-13T20:38:49.639Z,12.77
2018-05-13T20:41:22.314Z,13.67
2018-05-13T20:43:54.776Z,13.33
2018-05-13T20:46:27.185Z,18.23
2018-05-13T20:49:00.287Z,15.60
2018-05-13T20:51:33.183Z,14.30
2018-05-13T20:54:06.396Z,11.50
2018-05-13T20:56:39.296Z,14.27
2018-05-13T20:59:12.867Z,13.33
2018-05-13T21:01:45.776Z,13.60
2018-05-13T21:04:19.306Z,14.27
2018-05-13T21:06:52.005Z,12.40
2018-05-13T21:09:24.478Z,13.37
2018-05-13T21:11:56.903Z,22.53
2018-05-13T21:14:30.225Z,14.80
2018-05-13T21:17:02.811Z,13.93
2018-05-13T21:19:36.097Z,14.57
2018-05-13T21:22:08.764Z,12.20
2018-05-13T21:24:41.376Z,15.17
2018-05-13T21:27:14.015Z,13.93
2018-05-13T21:29:46.452Z,19.70
2018-05-13T21:32:19.848Z,14.13
2018-05-13T21:34:53.189Z,18.53
2018-05-13T21:37:25.637Z,16.80
2018-05-13T21:39:58.841Z,18.43
2018-05-13T21:42:31.763Z,15.83
2018-05-13T21:45:04.664Z,13.90
2018-05-13T21:47:37.463Z,15.60
2018-05-13T21:50:10.153Z,17.63
2018-05-13T21:52:42.682Z,17.90
2018-05-13T21:55:15.205Z,19.90
2018-05-13T21:57:47.728Z,17.70
2018-05-13T22:00:20.258Z,18.80
2018-05-13T22:02:54.359Z,15.60
2018-05-13T22:05:28.414Z,28.47
2018-05-13T22:08:01.832Z,20.27
2018-05-13T22:10:34.741Z,18.63
2018-05-13T22:13:07.238Z,19.10
2018-05-13T22:15:39.801Z,16.57
2018-05-13T22:18:12.318Z,18.40
2018-05-13T22:20:44.736Z,18.10
2018-05-13T22:23:18.085Z,17.80
2018-05-13T22:25:50.645Z,18.60
2018-05-13T22:28:23.896Z,17.93
2018-05-13T22:30:56.642Z,16.63
2018-05-13T22:33:29.103Z,19.40
2018-05-13T22:36:02.339Z,15.93
2018-05-13T22:38:35.123Z,18.20
2018-05-13T22:41:07.492Z,18.53
2018-05-13T22:43:40.094Z,13.27
2018-05-13T22:46:12.620Z,13.30
2018-05-13T22:48:46.872Z,14.90
2018-05-13T22:51:19.722Z,16.33
2018-05-13T22:53:52.414Z,15.03
2018-05-13T22:56:25.724Z,15.77
2018-05-13T22:58:58.266Z,14.83
2018-05-13T23:01:32.319Z,12.20
2018-05-13T23:04:05.269Z,14.60
2018-05-13T23:06:37.907Z,15.23
2018-05-13T23:09:10.505Z,12.83
2018-05-13T23:11:42.814Z,13.07
2018-05-13T23:14:16.337Z,19.00
2018-05-13T23:16:49.093Z,13.30
2018-05-13T23:19:21.643Z,15.27
2018-05-13T23:21:54.078Z,13.90
2018-05-13T23:24:26.810Z,14.00
2018-05-13T23:27:00.325Z,16.43
2018-05-13T23:29:32.960Z,17.43
2018-05-13T23:32:06.115Z,14.83
2018-05-13T23:34:38.819Z,13.77
2018-05-13T23:37:12.300Z,18.03
2018-05-13T23:39:45.572Z,16.87
2018-05-13T23:42:18.765Z,13.80
2018-05-13T23:44:51.474Z,13.03
2018-05-13T23:47:23.909Z,13.93
2018-05-13T23:49:57.337Z,13.03
2018-05-13T23:52:30.226Z,13.67
2018-05-13T23:55:02.667Z,16.20
2018-05-13T23:57:36.001Z,15.93
